• Join FlightAware (Why Join?)
  • Login
  • US Flag 
 
04:52PM EST


 

Airport Tracker/Info


-or-


 

Live Flight TrackerFlight Track Log ✈ JST952 ✈ 21-Apr-2013 ✈ YSSY / SYD - YBCS / CNS

Flight Track Log - Related Links

Times and Time Zones

All times are in EDT time to prevent confusion due to time zone crossing. See the JST952 flight status page for this flight to view local times or setup timezone preferences in your user account.

Time Position Orientation Groundspeed Altitude Reporting Facility
EDT Latitude Longitude Course Direction KTS MPH feet Rate Location/Type
04:05PM -33.9380 151.1900 168° South 5 6  Level FlightAware
04:05PM -33.9380 151.1880 270° West 34 39 720 Level FlightAware
04:05PM -33.9390 151.1830 256° West 105 121 1,260 Level FlightAware
04:06PM -33.9440 151.1626 256° West 149 171 700 1,800 Climbing Aus ATC (RADAR)
04:06PM -33.9440 151.1610 256° West 150 173 900 1,920 Climbing FlightAware
04:06PM -33.9500 151.1380 253° West 164 189 1,900 1,920 Climbing FlightAware
04:07PM -33.9530 151.1230 256° West 181 208 2,200 1,440 Climbing FlightAware
04:07PM -33.9600 151.0880 256° West 226 260 3,000 1,620 Climbing FlightAware
04:07PM -33.9680 151.0550 254° West 260 299 3,700 2,460 Climbing FlightAware
04:08PM -33.9756 151.0218 254° West 248 285 4,800 2,160 Climbing Aus ATC (RADAR)
04:08PM -33.9780 151.0120 254° West 265 305 4,800 300 Level FlightAware
04:08PM -33.9860 150.9760 255° West 269 310 5,000 300 Climbing FlightAware
04:09PM -33.9870 150.9540 267° West 271 312 5,000  Level FlightAware
04:09PM -33.9790 150.9330 295° West 270 311 5,000 780 Level FlightAware
04:09PM -33.9640 150.9200 324° Northwest 293 337 5,400 1,620 Climbing FlightAware
04:10PM -33.9290 150.9070 343° North 318 366 6,100 1,620 Climbing FlightAware
04:10PM -33.9070 150.8980 341° North 342 394 6,500 2,520 Climbing FlightAware
04:10PM -33.8590 150.8790 342° North 356 410 8,000 3,000 Climbing FlightAware
04:11PM -33.8120 150.8610 342° North 353 406 9,500 2,880 Climbing FlightAware
04:11PM -33.7490 150.8360 342° North 371 427 11,400 3,000 Climbing FlightAware
04:12PM -33.6847 150.8109 342° North 372 428 13,200 2,700 Climbing Aus ATC (RADAR)
04:12PM -33.6910 150.8130 342° North 375 432 13,000 2,160 Descending FlightAware
04:13PM -33.5990 150.7780 342° North 396 456 15,100 2,400 Climbing FlightAware
04:14PM -33.5340 150.7580 346° North 405 466 16,600 2,280 Climbing FlightAware
04:14PM -33.4626 150.7364 346° North 411 473 17,900 2,100 Climbing Aus ATC (RADAR)
04:14PM -33.4540 150.7340 346° North 417 480 18,000 1,800 Climbing FlightAware
04:15PM -33.3700 150.7090 346° North 428 493 19,500 1,920 Climbing FlightAware
04:16PM -33.2960 150.6870 346° North 431 496 20,800 2,100 Climbing FlightAware
04:16PM -33.2123 150.6617 346° North 434 499 22,200 1,980 Climbing Aus ATC (RADAR)
04:16PM -33.1990 150.6580 346° North 440 506 22,300 1,500 Climbing FlightAware
04:17PM -33.1240 150.6350 346° North 447 514 23,400 1,440 Climbing FlightAware
04:18PM -33.0310 150.6080 346° North 457 526 24,400 1,440 Climbing FlightAware
04:18PM -32.9494 150.5835 346° North 458 527 25,400 1,500 Climbing Aus ATC (RADAR)
04:18PM -32.9490 150.5830 346° North 462 532 25,400 1,200 Level FlightAware
04:19PM -32.8670 150.5580 346° North 466 536 26,300 1,380 Climbing FlightAware
04:19PM -32.8172 150.5433 346° North 454 522 26,800 1,200 Climbing Aus ATC (RADAR)
04:20PM -32.7670 150.5280 346° North 473 544 27,200 1,260 Climbing FlightAware
04:21PM -32.6840 150.5030 346° North 472 543 28,200 1,320 Climbing FlightAware
04:21PM -32.6156 150.4828 346° North 464 534 28,800 1,560 Climbing Aus ATC (RADAR)
04:21PM -32.5880 150.4740 346° North 469 540 29,400 2,400 Climbing FlightAware
04:22PM -32.5494 150.4635 346° North 466 536 30,100 1,500 Climbing Aus ATC (RADAR)
04:22PM -32.5040 150.4490 346° North 465 535 30,400 1,020 Climbing FlightAware
04:23PM -32.4280 150.4270 346° North 464 534 31,200 1,380 Climbing FlightAware
04:23PM -32.4137 150.4234 346° North 464 534 31,400 1,200 Climbing Aus ATC (RADAR)
04:23PM -32.3280 150.3970 346° North 466 536 32,100 1,080 Climbing FlightAware
04:24PM -32.2467 150.3740 346° North 464 534 32,900 1,020 Climbing Aus ATC (RADAR)
04:24PM -32.2430 150.3720 346° North 467 537 32,800 720 Descending FlightAware
04:25PM -32.1560 150.3460 346° North 467 537 33,500 1,200 Climbing FlightAware
04:25PM -32.1137 150.3345 346° North 456 525 34,000 900 Climbing Aus ATC (RADAR)
04:25PM -32.0670 150.3200 346° North 472 543 34,100 1,080 Climbing FlightAware
04:26PM -31.9837 150.2961 346° North 466 536 35,100 1,200 Climbing Aus ATC (RADAR)
04:26PM -31.9910 150.2980 346° North 464 534 34,900 300 Descending FlightAware
04:27PM -31.9090 150.2730 345° North 468 539 35,300 780 Climbing FlightAware
04:27PM -31.8472 150.2562 345° North 469 540 35,700 720 Climbing Aus ATC (RADAR)
04:28PM -31.8080 150.2440 345° North 471 542 35,900 360 Climbing FlightAware
04:28PM -31.7205 150.2184 345° North 470 541 36,100 120 Climbing Aus ATC (RADAR)
04:28PM -31.7360 150.2230 345° North 467 537 36,000 -180 Descending FlightAware
04:29PM -31.6340 150.1930 346° North 468 539 36,000 60 Level FlightAware
04:29PM -31.5837 150.1785 346° North 468 539 36,100  Climbing Aus ATC (RADAR)
04:30PM -31.5480 150.1680 346° North 466 536 36,000  Descending FlightAware
04:30PM -31.4516 150.1400 346° North 460 529 36,100  Climbing Aus ATC (RADAR)
04:30PM -31.4520 150.1400 346° North 467 537 36,000 -180 Descending FlightAware
04:31PM -31.3680 150.1150 346° North 467 537 36,000 60 Level FlightAware
04:31PM -31.3216 150.1026 346° North 467 537 36,100  Climbing Aus ATC (RADAR)
04:32PM -31.2840 150.0910 346° North 461 531 36,000  Descending FlightAware
04:32PM -31.1886 150.0641 346° North 464 534 36,100  Climbing Aus ATC (RADAR)
04:32PM -31.1960 150.0660 346° North 463 533 36,000 -120 Descending FlightAware
04:33PM -31.0720 150.0300 346° North 466 536 36,000 60 Level FlightAware
04:34PM -30.9975 150.0089 346° North 468 539 36,100  Climbing Aus ATC (RADAR)
04:34PM -30.9540 149.9960 346° North 467 537 36,000  Descending FlightAware
04:35PM -30.9080 149.9833 346° North 474 545 36,100  Climbing Aus ATC (RADAR)
04:35PM -30.8580 149.9680 346° North 468 539 36,000  Descending FlightAware
04:36PM -30.7732 149.9448 346° North 471 542 36,100  Climbing Aus ATC (RADAR)
04:36PM -30.7850 149.9470 346° North 468 539 36,000 -180 Descending FlightAware
04:36PM -30.7040 149.9230 346° North 468 539 36,000 60 Level FlightAware
04:37PM -30.6300 149.9032 346° North 477 549 36,100  Climbing Aus ATC (RADAR)
04:37PM -30.6150 149.8950 346° North 468 539 36,000  Descending FlightAware
04:38PM -30.4942 149.8650 346° North 476 548 36,100  Climbing Aus ATC (RADAR)
04:38PM -30.5440 149.8730 346° North 468 539 36,000 -180 Descending FlightAware
04:38PM -30.4730 149.8510 345° North 468 539 36,000 60 Level FlightAware
04:39PM -30.3606 149.8265 345° North 481 554 36,100  Climbing Aus ATC (RADAR)
04:39PM -30.4020 149.8290 345° North 468 539 36,000 -120 Descending FlightAware
04:40PM -30.3310 149.8070 345° North 468 539 36,000 120 Level FlightAware
04:40PM -30.2206 149.7869 345° North 479 551 36,100  Climbing Aus ATC (RADAR)
04:41PM -30.2420 149.7790 345° North 468 539 36,000  Descending FlightAware
04:41PM -30.0921 149.7504 345° North 476 548 36,100  Climbing Aus ATC (RADAR)
04:41PM -30.1710 149.7570 345° North 468 539 36,000  Descending FlightAware
04:42PM -29.9528 149.7113 345° North 476 548 36,100  Climbing Aus ATC (RADAR)
04:42PM -30.1000 149.7350 345° North 468 539 36,000 -180 Descending FlightAware
04:43PM -30.0290 149.7130 345° North 468 539 36,000 60 Level FlightAware
04:43PM -29.8248 149.6756 345° North 474 545 36,100  Climbing Aus ATC (RADAR)
04:43PM -29.9580 149.6910 345° North 468 539 36,000  Descending FlightAware
04:44PM -29.6886 149.6352 345° North 469 540 36,100  Climbing Aus ATC (RADAR)
04:44PM -29.8690 149.6640 345° North 468 539 36,000 -180 Descending FlightAware
04:45PM -29.7980 149.6420 345° North 468 539 36,000  Level FlightAware
04:45PM -29.5617 149.6002 345° North 470 541 36,000  Level Aus ATC (RADAR)
04:45PM -29.7260 149.6200 345° North 468 539 36,000  Level FlightAware
04:46PM -29.4243 149.5620 345° North 470 541 36,000  Level Aus ATC (RADAR)
04:47PM -29.2955 149.5294 348° North 475 547 36,000  Level Aus ATC (RADAR)
04:48PM -29.1589 149.4898 346° North 472 543 36,000  Level Aus ATC (RADAR)
04:49PM -29.0204 149.4530 347° North 472 543 36,000  Level Aus ATC (RADAR)
04:50PM -28.8879 149.4140 346° North 466 536 36,100  Climbing Aus ATC (RADAR)
04:51PM -28.7570 149.3810 348° North 468 539 36,000 -60 Descending Aus ATC (RADAR)
04:52PM -28.6210 149.3436 346° North 465 535 36,000  Level Aus ATC (RADAR)
04:53PM -28.4973 149.3082 346° North 460 529 36,000  Level Aus ATC (RADAR)
04:55PM -28.3626 149.2718 347° North 457 526 36,000  Level Aus ATC (RADAR)
04:56PM -28.2342 149.2351 346° North 453 521 36,000  Level Aus ATC (RADAR)
04:57PM -28.1067 149.2018 347° North 454 522 36,000  Level Aus ATC (RADAR)
04:58PM -27.9790 149.1654 346° North 452 520 36,000  Level Aus ATC (RADAR)
04:59PM -27.8509 149.1347 348° North 453 521 36,000  Level Aus ATC (RADAR)
05:00PM -27.6983 149.0939 347° North 452 520 36,000  Level Aus ATC (RADAR)
05:01PM -27.6119 149.0660 344° North 451 519 36,000  Level Aus ATC (RADAR)
05:01PM -27.5511 149.0499 347° North 449 517 36,000  Level Aus ATC (RADAR)
05:02PM -27.4392 149.0198 347° North 450 518 36,000  Level Aus ATC (RADAR)
05:02PM -27.4085 149.0112 346° North 452 520 36,000  Level Aus ATC (RADAR)
05:03PM -27.3479 148.9951 347° North 449 517 36,000  Level Aus ATC (RADAR)
05:04PM -27.2359 148.9651 347° North 451 519 36,000  Level Aus ATC (RADAR)
05:04PM -27.1755 148.9488 346° North 447 514 36,000  Level Aus ATC (RADAR)
05:05PM -27.0836 148.9243 347° North 448 516 36,000  Level Aus ATC (RADAR)
05:06PM -27.0020 148.9030 347° North 450 518 36,000  Level Aus ATC (RADAR)
05:06PM -26.9308 148.8837 346° North 450 518 36,000  Level Aus ATC (RADAR)
05:07PM -26.8297 148.8572 347° North 447 514 36,000  Level Aus ATC (RADAR)
05:07PM -26.7992 148.8490 347° North 448 516 36,000  Level Aus ATC (RADAR)
05:08PM -26.7288 148.8302 347° North 447 514 36,000  Level Aus ATC (RADAR)
05:09PM -26.6175 148.8008 347° North 446 513 36,000  Level Aus ATC (RADAR)
05:09PM -26.5867 148.7926 347° North 450 518 36,000  Level Aus ATC (RADAR)
05:10PM -26.5265 148.7768 347° North 445 512 36,000  Level Aus ATC (RADAR)
05:10PM -26.4182 148.7458 346° North 437 503 36,000  Level Aus ATC (RADAR)
05:11PM -26.3876 148.7360 344° North 445 512 36,000  Level Aus ATC (RADAR)
05:11PM -26.3281 148.7179 345° North 444 511 36,000  Level Aus ATC (RADAR)
05:12PM -26.2095 148.6833 345° North 441 507 36,000  Level Aus ATC (RADAR)
05:13PM -26.1203 148.6575 345° North 440 506 36,000  Level Aus ATC (RADAR)
05:14PM -26.0222 148.6284 345° North 439 505 36,000  Level Aus ATC (RADAR)
05:14PM -25.9543 148.6086 345° North 434 499 36,000  Level Aus ATC (RADAR)
05:15PM -25.8562 148.5800 345° North 437 503 36,000  Level Aus ATC (RADAR)
05:16PM -25.7881 148.5601 345° North 434 499 36,000  Level Aus ATC (RADAR)
05:17PM -25.7002 148.5344 345° North 435 501 36,000  Level Aus ATC (RADAR)
05:18PM -25.5835 148.5012 346° North 433 498 36,000  Level Aus ATC (RADAR)
05:18PM -25.4962 148.4760 345° North 433 498 36,000  Level Aus ATC (RADAR)
05:19PM -25.3992 148.4481 345° North 433 498 36,000  Level Aus ATC (RADAR)
05:20PM -25.3316 148.4288 346° North 431 496 36,000  Level Aus ATC (RADAR)
05:21PM -25.1782 148.3846 345° North 429 494 36,000  Level Aus ATC (RADAR)
05:21PM -25.1494 148.3768 346° North 429 494 36,000  Level Aus ATC (RADAR)
05:22PM -25.0817 148.3575 346° North 429 494 36,000  Level Aus ATC (RADAR)
05:23PM -24.9752 148.3271 345° North 430 495 36,000  Level Aus ATC (RADAR)
05:23PM -24.9068 148.3075 345° North 435 501 36,000  Level Aus ATC (RADAR)
05:24PM -24.8097 148.2793 345° North 435 501 36,000  Level Aus ATC (RADAR)
05:25PM -24.7413 148.2599 345° North 434 499 36,000  Level Aus ATC (RADAR)
05:26PM -24.6144 148.2241 346° North 435 501 36,000  Level Aus ATC (RADAR)
05:27PM -24.5262 148.1989 345° North 437 503 36,000  Level Aus ATC (RADAR)
05:28PM -24.4189 148.1684 345° North 435 501 36,000  Level Aus ATC (RADAR)
05:28PM -24.3304 148.1433 346° North 438 504 36,000  Level Aus ATC (RADAR)
05:29PM -24.2328 148.1157 346° North 435 501 36,000  Level Aus ATC (RADAR)
05:29PM -24.2038 148.1075 346° North 435 501 36,000  Level Aus ATC (RADAR)
05:30PM -24.1353 148.0883 346° North 435 501 36,000  Level Aus ATC (RADAR)
05:31PM -24.0193 148.0555 345° North 431 496 36,000  Level Aus ATC (RADAR)
05:31PM -23.9905 148.0472 345° North 430 495 36,000  Level Aus ATC (RADAR)
05:32PM -23.9226 148.0283 346° North 431 496 36,000  Level Aus ATC (RADAR)
05:33PM -23.8263 148.0014 346° North 429 494 36,000  Level Aus ATC (RADAR)
05:33PM -23.7975 147.9931 345° North 428 493 36,000  Level Aus ATC (RADAR)
05:33PM -23.7299 147.9744 346° North 430 495 36,000  Level Aus ATC (RADAR)
05:34PM -23.6341 147.9476 346° North 427 491 36,000  Level Aus ATC (RADAR)
05:35PM -23.5759 147.9315 346° North 432 497 36,000  Level Aus ATC (RADAR)
05:36PM -23.4890 147.9070 345° North 431 496 36,000  Level Aus ATC (RADAR)
05:36PM -23.4013 147.8822 345° North 435 501 36,000  Level Aus ATC (RADAR)
05:37PM -23.3426 147.8661 346° North 437 503 36,000  Level Aus ATC (RADAR)
05:38PM -23.2346 147.8361 346° North 437 503 36,000  Level Aus ATC (RADAR)
05:38PM -23.2050 147.8282 346° North 437 503 36,000  Level Aus ATC (RADAR)
05:38PM -23.1458 147.8112 345° North 439 505 36,000  Level Aus ATC (RADAR)
05:39PM -23.0370 147.7811 346° North 440 506 36,000  Level Aus ATC (RADAR)
05:40PM -23.0072 147.7730 346° North 442 509 36,000  Level Aus ATC (RADAR)
05:40PM -22.9376 147.7538 346° North 441 507 36,000  Level Aus ATC (RADAR)
05:41PM -22.8386 147.7261 346° North 441 507 36,000  Level Aus ATC (RADAR)
05:41PM -22.8088 147.7178 346° North 442 509 36,000  Level Aus ATC (RADAR)
05:42PM -22.7486 147.7010 346° North 442 509 36,000  Level Aus ATC (RADAR)
05:43PM -22.6393 147.6710 346° North 442 509 36,000  Level Aus ATC (RADAR)
05:43PM -22.6097 147.6628 346° North 442 509 36,000  Level Aus ATC (RADAR)
05:44PM -22.5420 147.6393 342° North 439 505 36,000  Level Aus ATC (RADAR)
05:44PM -22.4475 147.6023 340° North 435 501 36,000  Level Aus ATC (RADAR)
05:45PM -22.3816 147.5771 340° North 433 498 36,000  Level Aus ATC (RADAR)
05:46PM -22.2863 147.5398 340° North 437 503 36,000  Level Aus ATC (RADAR)
05:46PM -22.2108 147.5105 340° North 433 498 36,000  Level Aus ATC (RADAR)
05:47PM -22.1440 147.4840 340° North 435 501 36,000  Level Aus ATC (RADAR)
05:48PM -22.0390 147.4431 340° North 439 505 36,000  Level Aus ATC (RADAR)
05:49PM -21.9530 147.4102 340° North 435 501 36,000  Level Aus ATC (RADAR)
05:50PM -21.8476 147.3689 340° North 440 506 36,000  Level Aus ATC (RADAR)
05:50PM -21.8187 147.3579 340° North 441 507 36,000  Level Aus ATC (RADAR)
05:50PM -21.7519 147.3320 340° North 437 503 36,000  Level Aus ATC (RADAR)
05:51PM -21.6559 147.2952 340° North 437 503 36,000  Level Aus ATC (RADAR)
05:51PM -21.6271 147.2841 340° North 438 504 36,000  Level Aus ATC (RADAR)
05:52PM -21.5603 147.2580 340° North 440 506 36,000  Level Aus ATC (RADAR)
05:53PM -21.4646 147.2212 340° North 435 501 36,000  Level Aus ATC (RADAR)
05:53PM -21.4359 147.2102 340° North 435 501 36,000  Level Aus ATC (RADAR)
05:54PM -21.3780 147.1881 340° North 440 506 36,000  Level Aus ATC (RADAR)
05:55PM -21.2627 147.1436 340° North 439 505 36,000  Level Aus ATC (RADAR)
05:55PM -21.2060 147.1210 340° North 444 511 36,000  Level FlightAware
05:55PM -21.1755 147.1103 340° North 442 509 36,000  Level Aus ATC (RADAR)
05:56PM -21.1280 147.0910 340° North 443 510 36,000  Level FlightAware
05:56PM -21.0602 147.0656 340° North 440 506 36,000  Level Aus ATC (RADAR)
05:57PM -21.0460 147.0600 340° North 442 509 36,000  Level FlightAware
05:57PM -20.9733 147.0327 340° North 439 505 36,000  Level Aus ATC (RADAR)
05:57PM -20.9740 147.0320 340° North 441 507 36,000  Level FlightAware
05:58PM -20.8890 147.0000 341° North 432 497 36,000  Level FlightAware
05:58PM -20.8486 146.9850 341° North 440 506 36,000  Level Aus ATC (RADAR)
05:59PM -20.8020 146.9660 341° North 431 496 36,000  Level FlightAware
05:59PM -20.7260 146.9370 340° North 429 494 36,000  Level FlightAware
06:00PM -20.6861 146.9235 340° North 438 504 36,000  Level Aus ATC (RADAR)
06:00PM -20.6575 146.9126 340° North 437 503 36,000  Level Aus ATC (RADAR)
06:00PM -20.6420 146.9060 340° North 430 495 36,000  Level FlightAware
06:00PM -20.6005 146.8903 340° North 436 502 36,000  Level Aus ATC (RADAR)
06:01PM -20.5620 146.8750 340° North 431 496 36,000  Level FlightAware
06:01PM -20.4951 146.8504 340° North 437 503 36,000  Level Aus ATC (RADAR)
06:01PM -20.4860 146.8460 340° North 432 497 36,000  Level FlightAware
06:02PM -20.4085 146.8176 340° North 441 507 36,000  Level Aus ATC (RADAR)
06:02PM -20.3990 146.8130 340° North 441 507 36,000  Level FlightAware
06:03PM -20.3220 146.7840 341° North 442 509 36,000  Level FlightAware
06:03PM -20.2834 146.7700 341° North 442 509 36,000  Level Aus ATC (RADAR)
06:04PM -20.2340 146.7510 341° North 443 510 36,000  Level FlightAware
06:04PM -20.1580 146.7220 340° North 443 510 36,000  Level FlightAware
06:05PM -20.1192 146.7078 340° North 441 507 36,000  Level Aus ATC (RADAR)
06:05PM -20.0903 146.6969 340° North 441 507 36,000 240 Level Aus ATC (RADAR)
06:05PM -20.0800 146.6930 340° North 441 507 36,100  Climbing FlightAware
06:05PM -20.0228 146.6716 340° North 440 506 36,000 -180 Descending Aus ATC (RADAR)
06:06PM -19.9950 146.6610 340° North 440 506 36,000  Level FlightAware
06:06PM -19.9170 146.6310 340° North 430 495 36,000  Level FlightAware
06:07PM -19.8794 146.6171 340° North 439 505 36,000  Level Aus ATC (RADAR)
06:07PM -19.8300 146.5980 340° North 429 494 36,000  Level FlightAware
06:08PM -19.7520 146.5690 341° North 427 491 36,000  Level FlightAware
06:08PM -19.7084 146.5528 341° North 433 498 36,000  Level Aus ATC (RADAR)
06:08PM -19.6799 146.5421 341° North 434 499 36,000  Level Aus ATC (RADAR)
06:08PM -19.6750 146.5400 341° North 426 490 36,000  Level FlightAware
06:09PM -19.6324 146.5240 341° North 437 503 36,000  Level Aus ATC (RADAR)
06:09PM -19.5910 146.5090 341° North 426 490 36,000  Level FlightAware
06:10PM -19.5180 146.4810 340° North 429 494 36,000  Level FlightAware
06:10PM -19.4427 146.4521 340° North 437 503 36,000  Level Aus ATC (RADAR)
06:11PM -19.4340 146.4500 340° North 431 496 36,000  Level FlightAware
06:11PM -19.3520 146.4190 340° North 442 509 36,000  Level FlightAware
06:12PM -19.3152 146.4063 340° North 444 511 36,000  Level Aus ATC (RADAR)
06:12PM -19.2730 146.3900 340° North 443 510 36,000  Level FlightAware
06:12PM -19.2290 146.3737 340° North 434 499 36,000 120 Level Aus ATC (RADAR)
06:13PM -19.1870 146.3580 340° North 445 512 36,100  Climbing FlightAware
06:13PM -19.1210 146.3328 340° North 446 513 36,000 -180 Descending Aus ATC (RADAR)
06:13PM -19.1120 146.3300 340° North 447 514 36,000  Level FlightAware
06:14PM -19.0233 146.2975 340° North 444 511 36,000 120 Level Aus ATC (RADAR)
06:14PM -19.0210 146.2960 340° North 447 514 36,100  Climbing FlightAware
06:15PM -18.9430 146.2670 341° North 447 514 36,000 -120 Descending FlightAware
06:15PM -18.8578 146.2344 341° North 443 510 36,000  Level Aus ATC (RADAR)
06:15PM -18.8630 146.2370 341° North 446 513 36,000  Level FlightAware
06:16PM -18.7770 146.2050 341° North 443 510 36,000  Level FlightAware
06:17PM -18.7221 146.1848 341° North 435 501 36,000  Level Aus ATC (RADAR)
06:17PM -18.6925 146.1758 344° North 437 503 36,000  Level Aus ATC (RADAR)
06:17PM -18.6980 146.1760 344° North 441 507 36,000  Level FlightAware
06:17PM -18.6261 146.1473 344° North 438 504 36,000  Level Aus ATC (RADAR)
06:18PM -18.6120 146.1440 344° North 431 496 36,000  Level FlightAware
06:18PM -18.5370 146.1160 341° North 431 496 36,000  Level FlightAware
06:19PM -18.4537 146.0840 341° North 433 498 36,000  Level Aus ATC (RADAR)
06:19PM -18.4580 146.0870 341° North 431 496 36,000  Level FlightAware
06:20PM -18.3730 146.0560 341° North 439 505 36,000  Level FlightAware
06:20PM -18.3191 146.0338 341° North 439 505 36,000  Level Aus ATC (RADAR)
06:20PM -18.2940 146.0270 341° North 441 507 36,000  Level FlightAware
06:21PM -18.2613 146.0135 341° North 432 497 36,000  Level Aus ATC (RADAR)
06:21PM -18.2080 145.9950 341° North 441 507 36,000 -120 Level FlightAware
06:22PM -18.1320 145.9670 341° North 439 505 35,900 -1,320 Descending FlightAware
06:22PM -18.0550 145.9390 341° North 444 511 34,300 -2,880 Descending FlightAware
06:23PM -17.9900 145.9145 341° North 438 504 32,600 -2,820 Descending Aus ATC (RADAR)
06:23PM -17.9640 145.9050 341° North 440 506 32,200 -2,400 Descending FlightAware
06:24PM -17.8840 145.8760 341° North 447 514 30,400 -2,340 Descending FlightAware
06:25PM -17.8100 145.8490 341° North 428 493 29,100 -2,220 Descending FlightAware
06:25PM -17.7270 145.8180 340° North 430 495 27,300 -2,400 Descending FlightAware
06:26PM -17.6648 145.7931 340° North 421 484 26,200 -2,100 Descending Aus ATC (RADAR)
06:26PM -17.6530 145.7870 340° North 416 479 25,900 -2,400 Descending FlightAware
06:26PM -17.6049 145.7619 340° North 411 473 24,800 -2,700 Descending Aus ATC (RADAR)
06:27PM -17.5740 145.7460 340° North 411 473 23,900 -2,640 Descending FlightAware
06:27PM -17.5092 145.7128 340° North 408 470 22,400 -2,400 Descending Aus ATC (RADAR)
06:27PM -17.5030 145.7100 340° North 416 479 22,300 -1,620 Descending FlightAware
06:28PM -17.4575 145.6868 340° North 407 468 21,600 -1,620 Descending Aus ATC (RADAR)
06:28PM -17.4330 145.6740 340° North 399 459 21,100 -1,860 Descending FlightAware
06:29PM -17.3670 145.6409 340° North 384 442 19,900 -1,980 Descending Aus ATC (RADAR)
06:29PM -17.3610 145.6370 340° North 387 445 19,800 -1,620 Descending FlightAware
06:29PM -17.3090 145.6110 334° Northwest 381 438 18,800 -1,500 Descending FlightAware
06:30PM -17.2420 145.5760 333° Northwest 396 456 17,700 -1,620 Descending FlightAware
06:31PM -17.1570 145.5340 335° Northwest 397 457 16,400 -1,860 Descending FlightAware
06:32PM -17.0890 145.4990 334° Northwest 390 449 15,100 -2,160 Descending FlightAware
06:32PM -17.0341 145.4711 334° Northwest 380 437 13,800 -2,460 Descending Aus ATC (RADAR)
06:33PM -16.9870 145.4473 334° Northwest 375 432 12,700 -2,100 Descending Aus ATC (RADAR)
06:33PM -16.9750 145.4410 334° Northwest 375 432 12,400 -2,760 Descending FlightAware
06:34PM -16.8961 145.4235 334° Northwest 374 430 10,200 -2,760 Descending Aus ATC (RADAR)
06:34PM -16.8725 145.4349 25° Northeast 371 427 9,700 -1,200 Descending Aus ATC (RADAR)
06:34PM -16.8700 145.4370 25° Northeast 374 430 9,700 -2,340 Level FlightAware
06:34PM -16.8460 145.4510 29° Northeast 373 429 8,900 -3,000 Descending FlightAware
06:35PM -16.8000 145.4790 30° Northeast 367 422 7,700 -2,340 Descending FlightAware
06:35PM -16.7610 145.5000 27° Northeast 355 409 6,800 -1,740 Descending FlightAware
06:36PM -16.6922 145.5409 27° Northeast 332 382 5,600 -1,140 Descending Aus ATC (RADAR)
06:36PM -16.6840 145.5500 27° Northeast 310 357 5,700 -240 Climbing FlightAware
06:37PM -16.6480 145.5900 47° Northeast 274 315 5,400 -780 Descending FlightAware
06:37PM -16.6329 145.6145 47° Northeast 270 311 5,000 -900 Descending Aus ATC (RADAR)
06:37PM -16.6350 145.6110 47° Northeast 266 306 5,100 -840 Climbing FlightAware
06:37PM -16.6250 145.6350 67° East 259 298 4,700 -1,200 Descending FlightAware
06:37PM -16.6250 145.6360 90° East 259 298 4,600 -1,080 Descending FlightAware
06:38PM -16.6351 145.6659 90° East 244 281 4,300 -720 Descending Aus ATC (RADAR)
06:38PM -16.6270 145.6490 90° East 250 288 4,300 -780 Level FlightAware
06:38PM -16.6600 145.6820 136° Southeast 230 265 3,900 -1,140 Descending FlightAware
06:39PM -16.6904 145.7014 136° Southeast 229 264 3,300 -960 Descending Aus ATC (RADAR)
06:39PM -16.6950 145.7050 136° Southeast 221 254 3,200 -1,020 Descending FlightAware
06:39PM -16.7200 145.7220 147° Southeast 211 243 2,600 -780 Descending FlightAware
06:40PM -16.7520 145.7430 148° Southeast 200 230 2,400 -1,080 Descending FlightAware
06:40PM -16.7708 145.7503 148° Southeast 184 212 1,600 -1,380 Descending Aus ATC (RADAR)
06:41PM -16.7952 145.7399 202° Southwest 161 185 1,200 -600 Descending Aus ATC (RADAR)
06:42PM -16.8311 145.7281 197° South 125 144 700 -600 Descending Aus ATC (RADAR)
06:42PM -16.8398 145.7316 159° South 121 139 500 -600 Descending Aus ATC (RADAR)
06:43PM -16.8605 145.7416 155° Southeast 135 155 200 -540 Descending Aus ATC (RADAR)
06:45PM -16.8860 145.7553 163° South  Level FlightAware Approximate
06:52PM -16.8858 145.7553 163° South  Level Estimated
06:53PM -16.8858 145.7553 163° South  Level Estimated
06:54PM -16.8858 145.7553 163° South  Level Estimated
06:55PM -16.8858 145.7553 163° South  Level Estimated